Time,TemperatureF,DewpointF,PressureIn,WindDirection,WindDirectionDegrees,WindSpeedMPH,WindSpeedGustMPH,Humidity,HourlyPrecipIn,Conditions,Clouds,dailyrainin,SoftwareType,DateUTC
2013-08-17 00:02:00,44.5,35.0,30.07,NNW,335,5.0,5.0,69,0.00,,---,0.00,VWS V14.01,2013-08-17 06:02:00,
2013-08-17 00:07:00,44.7,35.2,30.07,NNW,335,0.0,0.0,69,0.00,,---,0.00,VWS V14.01,2013-08-17 06:07:00,
2013-08-17 00:12:00,44.7,34.8,30.07,NNW,335,4.0,4.0,68,0.00,,---,0.00,VWS V14.01,2013-08-17 06:12:00,
2013-08-17 00:17:00,45.0,34.0,30.07,NNW,335,4.0,7.0,65,0.00,,---,0.00,VWS V14.01,2013-08-17 06:17:00,
2013-08-17 00:22:00,45.5,34.8,30.07,NNW,335,1.0,1.0,66,0.00,,---,0.00,VWS V14.01,2013-08-17 06:22:00,
2013-08-17 00:27:00,45.6,34.5,30.07,NNW,335,2.0,2.0,65,0.00,,---,0.00,VWS V14.01,2013-08-17 06:27:00,
2013-08-17 00:32:00,45.6,34.5,30.07,NNW,335,0.0,2.0,65,0.00,,---,0.00,VWS V14.01,2013-08-17 06:32:00,
2013-08-17 00:37:00,45.6,34.9,30.07,NNW,335,0.0,0.0,66,0.00,,---,0.00,VWS V14.01,2013-08-17 06:37:00,
2013-08-17 00:42:00,45.5,34.4,30.07,NNW,335,0.0,0.0,65,0.00,,---,0.00,VWS V14.01,2013-08-17 06:42:00,
2013-08-17 00:47:00,45.4,34.3,30.07,NNW,335,4.0,4.0,65,0.00,,---,0.00,VWS V14.01,2013-08-17 06:47:00,
2013-08-17 00:52:00,45.0,34.3,30.07,NNW,335,3.0,4.0,66,0.00,,---,0.00,VWS V14.01,2013-08-17 06:52:00,
2013-08-17 00:57:00,44.9,33.9,30.07,NNW,335,3.0,3.0,65,0.00,,---,0.00,VWS V14.01,2013-08-17 06:57:00,
2013-08-17 01:02:00,45.0,34.3,30.07,NNW,335,5.0,8.0,66,0.00,,---,0.00,VWS V14.01,2013-08-17 07:02:00,
2013-08-17 01:07:00,45.1,34.0,30.07,NNW,335,7.0,7.0,65,0.00,,---,0.00,VWS V14.01,2013-08-17 07:07:00,
2013-08-17 01:12:00,44.7,34.0,30.07,NNW,335,4.0,4.0,66,0.00,,---,0.00,VWS V14.01,2013-08-17 07:12:00,
2013-08-17 01:17:00,44.1,34.2,30.07,NNW,335,6.0,7.0,68,0.00,,---,0.00,VWS V14.01,2013-08-17 07:17:00,
2013-08-17 01:22:00,43.5,34.0,30.07,NNW,335,5.0,5.0,69,0.00,,---,0.00,VWS V14.01,2013-08-17 07:22:00,
2013-08-17 01:27:00,43.1,33.6,30.07,NNW,335,4.0,5.0,69,0.00,,---,0.00,VWS V14.01,2013-08-17 07:27:00,
2013-08-17 01:32:00,43.3,33.5,30.07,NNW,335,0.0,0.0,68,0.00,,---,0.00,VWS V14.01,2013-08-17 07:32:00,
2013-08-17 01:37:00,43.5,34.4,30.07,NNW,335,0.0,0.0,70,0.00,,---,0.00,VWS V14.01,2013-08-17 07:37:00,
2013-08-17 01:42:00,43.5,34.7,30.07,NNW,335,0.0,0.0,71,0.00,,---,0.00,VWS V14.01,2013-08-17 07:42:00,
2013-08-17 01:47:00,43.3,34.2,30.07,NNW,335,0.0,1.0,70,0.00,,---,0.00,VWS V14.01,2013-08-17 07:47:00,
2013-08-17 01:52:00,43.1,34.0,30.07,NNW,335,1.0,1.0,70,0.00,,---,0.00,VWS V14.01,2013-08-17 07:52:00,
2013-08-17 01:57:00,43.2,34.1,30.07,NNW,335,3.0,5.0,70,0.00,,---,0.00,VWS V14.01,2013-08-17 07:57:00,
2013-08-17 02:02:00,43.1,34.0,30.07,NNW,335,0.0,2.0,70,0.00,,---,0.00,VWS V14.01,2013-08-17 08:02:00,
2013-08-17 02:07:00,43.1,34.3,30.07,NNW,335,0.0,0.0,71,0.00,,---,0.00,VWS V14.01,2013-08-17 08:07:00,
2013-08-17 02:12:00,43.1,34.0,30.07,NNW,335,0.0,0.0,70,0.00,,---,0.00,VWS V14.01,2013-08-17 08:12:00,
2013-08-17 02:18:00,43.1,33.6,30.07,NNW,335,0.0,0.0,69,0.00,,---,0.00,VWS V14.01,2013-08-17 08:18:00,
2013-08-17 02:23:00,42.9,34.2,30.07,NNW,335,2.0,3.0,71,0.00,,---,0.00,VWS V14.01,2013-08-17 08:23:00,
2013-08-17 02:28:00,42.7,34.0,30.07,NNW,335,2.0,2.0,71,0.00,,---,0.00,VWS V14.01,2013-08-17 08:28:00,
2013-08-17 02:33:00,42.5,33.8,30.07,NNW,335,1.0,4.0,71,0.00,,---,0.00,VWS V14.01,2013-08-17 08:33:00,
2013-08-17 02:38:00,42.3,33.9,30.07,NNW,335,0.0,0.0,72,0.00,,---,0.00,VWS V14.01,2013-08-17 08:38:00,
2013-08-17 02:43:00,42.0,33.6,30.07,NNW,335,0.0,0.0,72,0.00,,---,0.00,VWS V14.01,2013-08-17 08:43:00,
2013-08-17 02:48:00,42.0,34.0,30.07,NNW,335,0.0,0.0,73,0.00,,---,0.00,VWS V14.01,2013-08-17 08:48:00,
2013-08-17 02:53:00,42.2,34.2,30.07,NNW,335,0.0,0.0,73,0.00,,---,0.00,VWS V14.01,2013-08-17 08:53:00,
2013-08-17 02:58:00,42.2,34.2,30.07,NNW,335,0.0,0.0,73,0.00,,---,0.00,VWS V14.01,2013-08-17 08:58:00,
2013-08-17 03:03:00,42.2,33.8,30.07,NNW,335,0.0,0.0,72,0.00,,---,0.00,VWS V14.01,2013-08-17 09:03:00,
2013-08-17 03:08:00,42.2,34.2,30.07,NNW,335,0.0,0.0,73,0.00,,---,0.00,VWS V14.01,2013-08-17 09:08:00,
2013-08-17 03:13:00,42.2,34.5,30.07,NNW,335,0.0,0.0,74,0.00,,---,0.00,VWS V14.01,2013-08-17 09:13:00,
2013-08-17 03:18:00,42.1,34.4,30.07,NNW,335,0.0,0.0,74,0.00,,---,0.00,VWS V14.01,2013-08-17 09:18:00,
2013-08-17 03:23:00,42.0,34.0,30.07,NNW,335,0.0,3.0,73,0.00,,---,0.00,VWS V14.01,2013-08-17 09:23:00,
2013-08-17 03:28:00,42.1,34.4,30.07,NNW,335,0.0,0.0,74,0.00,,---,0.00,VWS V14.01,2013-08-17 09:28:00,
2013-08-17 03:33:00,42.2,34.5,30.07,NNW,335,0.0,0.0,74,0.00,,---,0.00,VWS V14.01,2013-08-17 09:33:00,
2013-08-17 03:38:00,42.1,34.4,30.07,NNW,335,0.0,0.0,74,0.00,,---,0.00,VWS V14.01,2013-08-17 09:38:00,
2013-08-17 03:43:00,42.1,34.4,30.07,NNW,335,0.0,0.0,74,0.00,,---,0.00,VWS V14.01,2013-08-17 09:43:00,
2013-08-17 03:48:00,41.9,34.6,30.07,NNW,335,3.0,3.0,75,0.00,,---,0.00,VWS V14.01,2013-08-17 09:48:00,
2013-08-17 03:53:00,41.4,34.4,30.07,NNW,335,0.0,0.0,76,0.00,,---,0.00,VWS V14.01,2013-08-17 09:53:00,
2013-08-17 03:58:00,41.2,34.5,30.06,NNW,335,0.0,0.0,77,0.00,,---,0.00,VWS V14.01,2013-08-17 09:58:00,
2013-08-17 04:03:00,41.1,34.5,30.06,NNW,335,2.0,2.0,77,0.00,,---,0.00,VWS V14.01,2013-08-17 10:03:00,
2013-08-17 04:08:00,41.1,34.1,30.06,NNW,335,0.0,0.0,76,0.00,,---,0.00,VWS V14.01,2013-08-17 10:08:00,
2013-08-17 04:13:00,41.1,33.8,30.06,NNW,335,1.0,1.0,75,0.00,,---,0.00,VWS V14.01,2013-08-17 10:13:00,
2013-08-17 04:18:00,41.1,34.1,30.06,NNW,335,0.0,0.0,76,0.00,,---,0.00,VWS V14.01,2013-08-17 10:18:00,
2013-08-17 04:23:00,41.1,34.1,30.06,NNW,335,0.0,0.0,76,0.00,,---,0.00,VWS V14.01,2013-08-17 10:23:00,
2013-08-17 04:28:00,40.9,34.3,30.06,NNW,335,0.0,0.0,77,0.00,,---,0.00,VWS V14.01,2013-08-17 10:28:00,
2013-08-17 04:33:00,40.8,34.2,30.06,NNW,335,0.0,0.0,77,0.00,,---,0.00,VWS V14.01,2013-08-17 10:33:00,
2013-08-17 04:38:00,40.7,34.1,30.06,NNW,335,0.0,0.0,77,0.00,,---,0.00,VWS V14.01,2013-08-17 10:38:00,
2013-08-17 04:43:00,40.6,34.3,30.06,NNW,335,0.0,0.0,78,0.00,,---,0.00,VWS V14.01,2013-08-17 10:43:00,
2013-08-17 04:48:00,40.6,34.3,30.07,NNW,335,0.0,0.0,78,0.00,,---,0.00,VWS V14.01,2013-08-17 10:48:00,
2013-08-17 04:53:00,40.7,34.1,30.06,NNW,335,0.0,0.0,77,0.00,,---,0.00,VWS V14.01,2013-08-17 10:53:00,
2013-08-17 04:58:00,40.9,33.9,30.07,NNW,335,0.0,0.0,76,0.00,,---,0.00,VWS V14.01,2013-08-17 10:58:00,
2013-08-17 05:03:00,41.0,33.4,30.06,NNW,335,0.0,2.0,74,0.00,,---,0.00,VWS V14.01,2013-08-17 11:03:00,
2013-08-17 05:08:00,41.1,34.1,30.06,NNW,335,0.0,0.0,76,0.00,,---,0.00,VWS V14.01,2013-08-17 11:08:00,
2013-08-17 05:13:00,41.0,34.0,30.06,NNW,335,0.0,0.0,76,0.00,,---,0.00,VWS V14.01,2013-08-17 11:13:00,
2013-08-17 05:18:00,40.8,33.5,30.06,NNW,335,0.0,0.0,75,0.00,,---,0.00,VWS V14.01,2013-08-17 11:18:00,
2013-08-17 05:23:00,40.9,33.6,30.06,NNW,335,0.0,0.0,75,0.00,,---,0.00,VWS V14.01,2013-08-17 11:23:00,
2013-08-17 05:28:00,41.0,33.7,30.06,NNW,335,0.0,0.0,75,0.00,,---,0.00,VWS V14.01,2013-08-17 11:28:00,
2013-08-17 05:33:00,40.9,33.6,30.06,NNW,335,0.0,0.0,75,0.00,,---,0.00,VWS V14.01,2013-08-17 11:33:00,
2013-08-17 05:38:00,40.8,33.5,30.06,NNW,335,0.0,0.0,75,0.00,,---,0.00,VWS V14.01,2013-08-17 11:38:00,
2013-08-17 05:44:00,40.7,33.1,30.06,NNW,335,4.0,4.0,74,0.00,,---,0.00,VWS V14.01,2013-08-17 11:44:00,
2013-08-17 05:49:00,41.3,33.3,30.06,NNW,335,0.0,3.0,73,0.00,,---,0.00,VWS V14.01,2013-08-17 11:49:00,
2013-08-17 05:54:00,41.3,34.0,30.06,NNW,335,0.0,0.0,75,0.00,,---,0.00,VWS V14.01,2013-08-17 11:54:00,
2013-08-17 05:59:00,40.9,34.3,30.06,NNW,335,0.0,0.0,77,0.00,,---,0.00,VWS V14.01,2013-08-17 11:59:00,
2013-08-17 06:04:00,40.3,33.7,30.06,NNW,335,4.0,5.0,77,0.00,,---,0.00,VWS V14.01,2013-08-17 12:04:00,
2013-08-17 06:06:00,40.1,33.2,30.06,NNW,335,6.0,7.0,76,0.00,,---,0.00,VWS V14.01,2013-08-17 12:06:00,
2013-08-17 06:11:00,40.0,33.4,30.06,NNW,335,4.0,6.0,77,0.00,,---,0.00,VWS V14.01,2013-08-17 12:11:00,
2013-08-17 06:16:00,40.0,33.7,30.06,NNW,335,0.0,0.0,78,0.00,,---,0.00,VWS V14.01,2013-08-17 12:16:00,
2013-08-17 06:21:00,39.7,33.7,30.07,NNW,335,0.0,0.0,79,0.00,,---,0.00,VWS V14.01,2013-08-17 12:21:00,
2013-08-17 06:26:00,39.6,34.0,30.07,SW,228,0.0,0.0,80,0.00,,---,0.00,VWS V14.01,2013-08-17 12:26:00,
2013-08-17 06:31:00,39.5,33.8,30.07,SW,228,0.0,0.0,80,0.00,,---,0.00,VWS V14.01,2013-08-17 12:31:00,
2013-08-17 06:36:00,39.3,33.7,30.07,SW,228,0.0,1.0,80,0.00,,---,0.00,VWS V14.01,2013-08-17 12:36:00,
2013-08-17 06:41:00,39.1,33.2,30.07,NNW,328,1.0,3.0,79,0.00,,---,0.00,VWS V14.01,2013-08-17 12:41:00,
2013-08-17 06:46:00,39.1,34.1,30.07,NNW,328,0.0,0.0,82,0.00,,---,0.00,VWS V14.01,2013-08-17 12:46:00,
2013-08-17 06:51:00,39.1,34.4,30.07,NNW,328,0.0,0.0,83,0.00,,---,0.00,VWS V14.01,2013-08-17 12:51:00,
2013-08-17 06:56:00,38.8,34.1,30.08,NNW,328,0.0,0.0,83,0.00,,---,0.00,VWS V14.01,2013-08-17 12:56:00,
2013-08-17 07:01:00,38.7,33.7,30.07,NNW,328,4.0,5.0,82,0.00,,---,0.00,VWS V14.01,2013-08-17 13:01:00,
2013-08-17 07:06:00,38.5,33.2,30.07,NNW,328,0.0,0.0,81,0.00,,---,0.00,VWS V14.01,2013-08-17 13:06:00,
2013-08-17 07:11:00,38.6,33.6,30.07,NNW,328,0.0,0.0,82,0.00,,---,0.00,VWS V14.01,2013-08-17 13:11:00,
2013-08-17 07:16:00,38.6,33.9,30.08,NNW,328,0.0,0.0,83,0.00,,---,0.00,VWS V14.01,2013-08-17 13:16:00,
2013-08-17 07:21:00,38.5,33.8,30.08,NNW,328,0.0,0.0,83,0.00,,---,0.00,VWS V14.01,2013-08-17 13:21:00,
2013-08-17 07:26:00,38.5,33.5,30.08,NNW,328,0.0,0.0,82,0.00,,---,0.00,VWS V14.01,2013-08-17 13:26:00,
2013-08-17 07:31:00,38.7,33.4,30.08,North,360,2.0,2.0,81,0.00,,---,0.00,VWS V14.01,2013-08-17 13:31:00,
2013-08-17 07:36:00,38.9,33.9,30.08,North,360,0.0,0.0,82,0.00,,---,0.00,VWS V14.01,2013-08-17 13:36:00,
2013-08-17 07:41:00,38.8,33.5,30.08,North,360,0.0,0.0,81,0.00,,---,0.00,VWS V14.01,2013-08-17 13:41:00,
2013-08-17 07:46:00,38.7,33.1,30.08,North,360,0.0,0.0,80,0.00,,---,0.00,VWS V14.01,2013-08-17 13:46:00,
2013-08-17 07:51:00,38.8,33.5,30.08,North,360,2.0,2.0,81,0.00,,---,0.00,VWS V14.01,2013-08-17 13:51:00,
2013-08-17 07:56:00,38.8,33.8,30.08,North,360,0.0,0.0,82,0.00,,---,0.00,VWS V14.01,2013-08-17 13:56:00,
2013-08-17 08:01:00,38.9,33.9,30.08,North,360,0.0,0.0,82,0.00,,---,0.00,VWS V14.01,2013-08-17 14:01:00,
2013-08-17 08:06:00,39.0,34.0,30.08,North,360,0.0,0.0,82,0.00,,---,0.00,VWS V14.01,2013-08-17 14:06:00,
2013-08-17 08:11:00,39.0,34.0,30.08,North,360,0.0,0.0,82,0.00,,---,0.00,VWS V14.01,2013-08-17 14:11:00,
2013-08-17 08:16:00,39.3,34.3,30.08,North,360,0.0,0.0,82,0.00,,---,0.00,VWS V14.01,2013-08-17 14:16:00,
2013-08-17 08:21:00,40.1,35.7,30.08,North,360,0.0,0.0,84,0.00,,---,0.00,VWS V14.01,2013-08-17 14:21:00,
2013-08-17 08:26:00,41.3,36.2,30.08,North,360,0.0,0.0,82,0.00,,---,0.00,VWS V14.01,2013-08-17 14:26:00,
2013-08-17 08:31:00,42.7,36.7,30.08,North,360,0.0,0.0,79,0.00,,---,0.00,VWS V14.01,2013-08-17 14:31:00,
2013-08-17 08:36:00,44.5,37.8,30.08,North,360,1.0,1.0,77,0.00,,---,0.00,VWS V14.01,2013-08-17 14:36:00,
2013-08-17 08:41:00,46.2,39.4,30.08,North,360,0.0,1.0,77,0.00,,---,0.00,VWS V14.01,2013-08-17 14:41:00,
2013-08-17 08:46:00,47.6,39.7,30.08,North,360,0.0,1.0,74,0.00,,---,0.00,VWS V14.01,2013-08-17 14:46:00,
2013-08-17 08:51:00,48.6,40.0,30.08,North,360,0.0,0.0,72,0.00,,---,0.00,VWS V14.01,2013-08-17 14:51:00,
2013-08-17 08:56:00,49.6,40.6,30.08,North,360,0.0,0.0,71,0.00,,---,0.00,VWS V14.01,2013-08-17 14:56:00,
2013-08-17 09:01:00,51.0,40.1,30.07,North,360,0.0,0.0,66,0.00,,---,0.00,VWS V14.01,2013-08-17 15:01:00,
2013-08-17 09:06:00,52.7,40.5,30.07,NNE,24,1.0,1.0,63,0.00,,---,0.00,VWS V14.01,2013-08-17 15:06:00,
2013-08-17 09:11:00,53.6,40.5,30.07,NNE,24,0.0,0.0,61,0.00,,---,0.00,VWS V14.01,2013-08-17 15:11:00,
2013-08-17 09:17:00,54.6,40.1,30.07,NNE,24,1.0,1.0,58,0.00,,---,0.00,VWS V14.01,2013-08-17 15:17:00,
2013-08-17 09:22:00,54.8,41.6,30.07,NNE,25,0.0,1.0,61,0.00,,---,0.00,VWS V14.01,2013-08-17 15:22:00,
2013-08-17 09:27:00,55.7,39.8,30.07,NNE,25,0.0,0.0,55,0.00,,---,0.00,VWS V14.01,2013-08-17 15:27:00,
2013-08-17 09:32:00,56.7,40.7,30.06,NNE,25,0.0,1.0,55,0.00,,---,0.00,VWS V14.01,2013-08-17 15:32:00,
2013-08-17 09:37:00,57.6,41.1,30.06,NNE,25,1.0,2.0,54,0.00,,---,0.00,VWS V14.01,2013-08-17 15:37:00,
2013-08-17 09:42:00,58.1,42.0,30.06,NNE,25,0.0,0.0,55,0.00,,---,0.00,VWS V14.01,2013-08-17 15:42:00,
2013-08-17 09:47:00,58.9,39.8,30.06,NNE,25,0.0,0.0,49,0.00,,---,0.00,VWS V14.01,2013-08-17 15:47:00,
2013-08-17 09:52:00,59.5,38.2,30.06,NNE,25,0.0,0.0,45,0.00,,---,0.00,VWS V14.01,2013-08-17 15:52:00,
2013-08-17 09:57:00,59.9,39.1,30.05,NNE,25,0.0,1.0,46,0.00,,---,0.00,VWS V14.01,2013-08-17 15:57:00,
2013-08-17 10:02:00,60.0,36.2,30.05,NNE,25,2.0,2.0,41,0.00,,---,0.00,VWS V14.01,2013-08-17 16:02:00,
2013-08-17 10:07:00,60.9,37.7,30.05,NNE,28,2.0,3.0,42,0.00,,---,0.00,VWS V14.01,2013-08-17 16:07:00,
2013-08-17 10:12:00,61.4,38.7,30.05,NNE,28,1.0,1.0,43,0.00,,---,0.00,VWS V14.01,2013-08-17 16:12:00,
2013-08-17 10:17:00,61.8,38.5,30.05,NNE,29,0.0,1.0,42,0.00,,---,0.00,VWS V14.01,2013-08-17 16:17:00,
2013-08-17 10:22:00,62.7,40.5,30.05,NNE,29,0.0,0.0,44,0.00,,---,0.00,VWS V14.01,2013-08-17 16:22:00,
2013-08-17 10:27:00,63.2,39.8,30.05,NNE,28,0.0,0.0,42,0.00,,---,0.00,VWS V14.01,2013-08-17 16:27:00,
2013-08-17 10:32:00,63.9,41.0,30.04,NNE,30,2.0,2.0,43,0.00,,---,0.00,VWS V14.01,2013-08-17 16:32:00,
2013-08-17 10:37:00,64.3,41.9,30.04,NE,34,2.0,2.0,44,0.00,,---,0.00,VWS V14.01,2013-08-17 16:37:00,
2013-08-17 10:42:00,64.9,42.5,30.04,ENE,63,3.0,3.0,44,0.00,,---,0.00,VWS V14.01,2013-08-17 16:42:00,
2013-08-17 10:47:00,64.7,42.3,30.03,ENE,78,0.0,3.0,44,0.00,,---,0.00,VWS V14.01,2013-08-17 16:47:00,
2013-08-17 10:52:00,65.4,42.9,30.03,East,81,1.0,2.0,44,0.00,,---,0.00,VWS V14.01,2013-08-17 16:52:00,
2013-08-17 10:57:00,66.3,44.3,30.03,East,89,0.0,0.0,45,0.00,,---,0.00,VWS V14.01,2013-08-17 16:57:00,
2013-08-17 11:02:00,67.4,39.5,30.03,ESE,115,0.0,1.0,36,0.00,,---,0.00,VWS V14.01,2013-08-17 17:02:00,
2013-08-17 11:07:00,68.6,40.6,30.03,SE,141,3.0,6.0,36,0.00,,---,0.00,VWS V14.01,2013-08-17 17:07:00,
2013-08-17 11:12:00,68.9,38.6,30.02,SE,146,5.0,6.0,33,0.00,,---,0.00,VWS V14.01,2013-08-17 17:12:00,
2013-08-17 11:17:00,69.8,40.2,30.02,SE,136,4.0,4.0,34,0.00,,---,0.00,VWS V14.01,2013-08-17 17:17:00,
2013-08-17 11:22:00,69.7,40.8,30.02,SE,140,0.0,4.0,35,0.00,,---,0.00,VWS V14.01,2013-08-17 17:22:00,
2013-08-17 11:27:00,69.7,40.8,30.02,SE,140,4.0,4.0,35,0.00,,---,0.00,VWS V14.01,2013-08-17 17:27:00,
2013-08-17 11:32:00,70.7,43.2,30.01,SE,140,5.0,7.0,37,0.00,,---,0.00,VWS V14.01,2013-08-17 17:32:00,
2013-08-17 11:37:00,71.8,39.6,30.01,SE,139,3.0,5.0,31,0.00,,---,0.00,VWS V14.01,2013-08-17 17:37:00,
2013-08-17 11:42:00,71.9,38.0,30.01,SE,144,2.0,2.0,29,0.00,,---,0.00,VWS V14.01,2013-08-17 17:42:00,
2013-08-17 11:47:00,73.1,43.8,30.00,SSE,159,5.0,7.0,35,0.00,,---,0.00,VWS V14.01,2013-08-17 17:47:00,
2013-08-17 11:52:00,73.0,42.2,30.00,South,177,5.0,5.0,33,0.00,,---,0.00,VWS V14.01,2013-08-17 17:52:00,
2013-08-17 11:57:00,73.6,38.5,30.00,South,177,2.0,2.0,28,0.00,,---,0.00,VWS V14.01,2013-08-17 17:57:00,
2013-08-17 12:02:00,73.7,38.6,30.00,SSE,157,5.0,6.0,28,0.00,,---,0.00,VWS V14.01,2013-08-17 18:02:00,
2013-08-17 12:07:00,73.2,36.3,30.00,SSE,157,4.0,4.0,26,0.00,,---,0.00,VWS V14.01,2013-08-17 18:07:00,
2013-08-17 12:12:00,73.9,35.9,30.00,SSE,157,3.0,5.0,25,0.00,,---,0.00,VWS V14.01,2013-08-17 18:12:00,
2013-08-17 12:17:00,75.4,38.2,29.99,SSE,157,5.0,6.0,26,0.00,,---,0.00,VWS V14.01,2013-08-17 18:17:00,
2013-08-17 12:22:00,75.8,33.1,29.99,South,171,1.0,3.0,21,0.00,,---,0.00,VWS V14.01,2013-08-17 18:22:00,
2013-08-17 12:27:00,74.6,34.4,29.99,NE,55,5.0,5.0,23,0.00,,---,0.00,VWS V14.01,2013-08-17 18:27:00,
2013-08-17 12:32:00,75.8,31.9,29.99,SSW,196,8.0,9.0,20,0.00,,---,0.00,VWS V14.01,2013-08-17 18:32:00,
2013-08-17 12:37:00,74.6,33.3,29.99,SE,128,6.0,6.0,22,0.00,,---,0.00,VWS V14.01,2013-08-17 18:37:00,
2013-08-17 12:42:00,73.5,32.4,29.99,SE,143,2.0,5.0,22,0.00,,---,0.00,VWS V14.01,2013-08-17 18:42:00,
2013-08-17 12:47:00,73.4,34.5,29.99,SSW,192,5.0,5.0,24,0.00,,---,0.00,VWS V14.01,2013-08-17 18:47:00,
2013-08-17 12:52:00,73.7,30.2,29.99,SSW,211,5.0,6.0,20,0.00,,---,0.00,VWS V14.01,2013-08-17 18:52:00,
2013-08-17 12:58:00,73.4,33.4,29.98,SSW,211,6.0,6.0,23,0.00,,---,0.00,VWS V14.01,2013-08-17 18:58:00,
2013-08-17 13:03:00,73.0,33.0,29.98,SSW,211,0.0,0.0,23,0.00,,---,0.00,VWS V14.01,2013-08-17 19:03:00,
2013-08-17 13:08:00,73.4,31.1,29.98,SSW,211,1.0,1.0,21,0.00,,---,0.00,VWS V14.01,2013-08-17 19:08:00,
2013-08-17 13:13:00,72.8,33.9,29.98,East,96,7.0,8.0,24,0.00,,---,0.00,VWS V14.01,2013-08-17 19:13:00,
2013-08-17 13:18:00,72.8,37.8,29.98,NNE,28,7.0,8.0,28,0.00,,---,0.00,VWS V14.01,2013-08-17 19:18:00,
2013-08-17 13:23:00,72.7,38.6,29.98,NE,34,6.0,7.0,29,0.00,,---,0.00,VWS V14.01,2013-08-17 19:23:00,
2013-08-17 13:28:00,73.2,39.9,29.98,NE,40,5.0,5.0,30,0.00,,---,0.00,VWS V14.01,2013-08-17 19:28:00,
2013-08-17 13:33:00,75.0,36.8,29.97,SSE,163,7.0,7.0,25,0.00,,---,0.00,VWS V14.01,2013-08-17 19:33:00,
2013-08-17 13:38:00,75.1,32.5,29.97,SSE,168,5.0,5.0,21,0.00,,---,0.00,VWS V14.01,2013-08-17 19:38:00,
2013-08-17 13:43:00,74.6,34.4,29.97,South,182,5.0,5.0,23,0.00,,---,0.00,VWS V14.01,2013-08-17 19:43:00,
2013-08-17 13:48:00,73.9,36.9,29.97,South,179,3.0,3.0,26,0.00,,---,0.00,VWS V14.01,2013-08-17 19:48:00,
2013-08-17 13:53:00,73.3,31.0,29.97,South,178,1.0,4.0,21,0.00,,---,0.00,VWS V14.01,2013-08-17 19:53:00,
2013-08-17 13:58:00,73.0,32.0,29.97,South,178,0.0,4.0,22,0.00,,---,0.00,VWS V14.01,2013-08-17 19:58:00,
2013-08-17 14:03:00,73.3,33.3,29.97,South,178,0.0,1.0,23,0.00,,---,0.00,VWS V14.01,2013-08-17 20:03:00,
2013-08-17 14:08:00,73.3,37.3,29.97,South,178,1.0,2.0,27,0.00,,---,0.00,VWS V14.01,2013-08-17 20:08:00,
2013-08-17 14:13:00,73.1,39.0,29.97,East,83,0.0,0.0,29,0.00,,---,0.00,VWS V14.01,2013-08-17 20:13:00,
2013-08-17 14:18:00,72.9,37.0,29.96,East,83,1.0,1.0,27,0.00,,---,0.00,VWS V14.01,2013-08-17 20:18:00,
2013-08-17 14:23:00,72.7,32.8,29.96,East,79,0.0,2.0,23,0.00,,---,0.00,VWS V14.01,2013-08-17 20:23:00,
2013-08-17 14:28:00,72.6,35.8,29.96,East,79,0.0,0.0,26,0.00,,---,0.00,VWS V14.01,2013-08-17 20:28:00,
2013-08-17 14:33:00,72.6,35.8,29.96,East,79,0.0,0.0,26,0.00,,---,0.00,VWS V14.01,2013-08-17 20:33:00,
2013-08-17 14:38:00,72.8,41.3,29.95,East,80,3.0,3.0,32,0.00,,---,0.00,VWS V14.01,2013-08-17 20:38:00,
2013-08-17 14:43:00,72.8,45.0,29.95,East,80,3.0,3.0,37,0.00,,---,0.00,VWS V14.01,2013-08-17 20:43:00,
2013-08-17 14:48:00,72.7,40.3,29.95,East,81,2.0,2.0,31,0.00,,---,0.00,VWS V14.01,2013-08-17 20:48:00,
2013-08-17 14:53:00,72.9,41.3,29.95,East,82,2.0,2.0,32,0.00,,---,0.00,VWS V14.01,2013-08-17 20:53:00,
2013-08-17 14:58:00,73.1,34.2,29.94,SSW,200,1.0,1.0,24,0.00,,---,0.00,VWS V14.01,2013-08-17 20:58:00,
2013-08-17 15:03:00,73.1,33.1,29.95,SSW,200,0.0,0.0,23,0.00,,---,0.00,VWS V14.01,2013-08-17 21:03:00,
2013-08-17 15:08:00,73.0,33.0,29.95,SSW,200,0.0,1.0,23,0.00,,---,0.00,VWS V14.01,2013-08-17 21:08:00,
2013-08-17 15:13:00,73.0,42.2,29.94,SSW,200,0.0,0.0,33,0.00,,---,0.00,VWS V14.01,2013-08-17 21:13:00,
2013-08-17 15:18:00,72.6,37.7,29.94,NNW,331,7.0,7.0,28,0.00,,---,0.00,VWS V14.01,2013-08-17 21:18:00,
2013-08-17 15:23:00,72.0,38.9,29.94,North,355,3.0,4.0,30,0.00,,---,0.00,VWS V14.01,2013-08-17 21:23:00,
2013-08-17 15:28:00,71.4,35.7,29.94,North,9,6.0,6.0,27,0.00,,---,0.00,VWS V14.01,2013-08-17 21:28:00,
2013-08-17 15:33:00,71.1,35.5,29.94,NNE,17,4.0,5.0,27,0.00,,---,0.00,VWS V14.01,2013-08-17 21:33:00,
2013-08-17 15:38:00,71.1,41.3,29.94,NNE,17,0.0,1.0,34,0.00,,---,0.00,VWS V14.01,2013-08-17 21:38:00,
2013-08-17 15:43:00,71.3,44.4,29.93,NNE,17,0.0,1.0,38,0.00,,---,0.00,VWS V14.01,2013-08-17 21:43:00,
2013-08-17 15:48:00,71.3,43.0,29.93,NNE,17,1.0,1.0,36,0.00,,---,0.00,VWS V14.01,2013-08-17 21:48:00,
2013-08-17 15:53:00,71.4,33.8,29.93,NNE,17,0.0,0.0,25,0.00,,---,0.00,VWS V14.01,2013-08-17 21:53:00,
2013-08-17 15:58:00,72.6,35.8,29.93,NNE,17,0.0,0.0,26,0.00,,---,0.00,VWS V14.01,2013-08-17 21:58:00,
2013-08-17 16:03:00,74.3,35.2,29.92,NNE,17,2.0,3.0,24,0.00,,---,0.00,VWS V14.01,2013-08-17 22:03:00,
2013-08-17 16:08:00,74.6,33.3,29.92,NNE,22,1.0,4.0,22,0.00,,---,0.00,VWS V14.01,2013-08-17 22:08:00,
2013-08-17 16:14:00,74.5,36.4,29.92,NNE,23,0.0,1.0,25,0.00,,---,0.00,VWS V14.01,2013-08-17 22:14:00,
2013-08-17 16:19:00,75.0,35.8,29.92,NNE,23,0.0,0.0,24,0.00,,---,0.00,VWS V14.01,2013-08-17 22:19:00,
2013-08-17 16:24:00,74.9,37.7,29.92,North,9,7.0,10.0,26,0.00,,---,0.00,VWS V14.01,2013-08-17 22:24:00,
2013-08-17 16:29:00,74.9,39.6,29.92,West,271,12.0,16.0,28,0.00,,---,0.00,VWS V14.01,2013-08-17 22:29:00,
2013-08-17 16:34:00,75.8,37.5,29.91,West,275,12.0,12.0,25,0.00,,---,0.00,VWS V14.01,2013-08-17 22:34:00,
2013-08-17 16:39:00,76.3,36.9,29.91,WNW,292,12.0,12.0,24,0.00,,---,0.00,VWS V14.01,2013-08-17 22:39:00,
2013-08-17 16:44:00,76.5,38.1,29.91,WNW,294,9.0,10.0,25,0.00,,---,0.00,VWS V14.01,2013-08-17 22:44:00,
2013-08-17 16:49:00,75.6,36.3,29.91,NW,319,10.0,13.0,24,0.00,,---,0.00,VWS V14.01,2013-08-17 22:49:00,
2013-08-17 16:54:00,75.0,35.8,29.91,NNW,327,5.0,10.0,24,0.00,,---,0.00,VWS V14.01,2013-08-17 22:54:00,
2013-08-17 16:59:00,75.4,36.1,29.91,West,277,7.0,11.0,24,0.00,,---,0.00,VWS V14.01,2013-08-17 22:59:00,
2013-08-17 17:04:00,75.8,34.3,29.91,West,276,9.0,13.0,22,0.00,,---,0.00,VWS V14.01,2013-08-17 23:04:00,
2013-08-17 17:09:00,75.6,36.3,29.91,WSW,254,11.0,13.0,24,0.00,,---,0.00,VWS V14.01,2013-08-17 23:09:00,
2013-08-17 17:14:00,75.5,35.2,29.91,West,264,8.0,13.0,23,0.00,,---,0.00,VWS V14.01,2013-08-17 23:14:00,
2013-08-17 17:19:00,75.2,36.0,29.91,West,271,11.0,11.0,24,0.00,,---,0.00,VWS V14.01,2013-08-17 23:19:00,
2013-08-17 17:24:00,74.7,37.6,29.91,West,269,9.0,10.0,26,0.00,,---,0.00,VWS V14.01,2013-08-17 23:24:00,
2013-08-17 17:29:00,74.2,39.0,29.91,West,269,8.0,10.0,28,0.00,,---,0.00,VWS V14.01,2013-08-17 23:29:00,
2013-08-17 17:34:00,73.9,37.8,29.91,West,269,3.0,6.0,27,0.00,,---,0.00,VWS V14.01,2013-08-17 23:34:00,
2013-08-17 17:39:00,73.5,37.5,29.91,West,271,8.0,8.0,27,0.00,,---,0.00,VWS V14.01,2013-08-17 23:39:00,
2013-08-17 17:44:00,73.5,38.4,29.90,West,272,8.0,8.0,28,0.00,,---,0.00,VWS V14.01,2013-08-17 23:44:00,
2013-08-17 17:49:00,73.7,35.7,29.90,West,272,6.0,7.0,25,0.00,,---,0.00,VWS V14.01,2013-08-17 23:49:00,
2013-08-17 17:54:00,73.5,34.5,29.91,WNW,285,5.0,7.0,24,0.00,,---,0.00,VWS V14.01,2013-08-17 23:54:00,
2013-08-17 17:59:00,72.8,36.0,29.90,WNW,285,5.0,5.0,26,0.00,,---,0.00,VWS V14.01,2013-08-17 23:59:00,
2013-08-17 18:04:00,72.3,37.4,29.91,WNW,286,3.0,3.0,28,0.00,,---,0.00,VWS V14.01,2013-08-18 00:04:00,
2013-08-17 18:09:00,71.9,37.1,29.90,WNW,286,4.0,5.0,28,0.00,,---,0.00,VWS V14.01,2013-08-18 00:09:00,
2013-08-17 18:14:00,71.7,36.0,29.90,WNW,286,4.0,5.0,27,0.00,,---,0.00,VWS V14.01,2013-08-18 00:14:00,
2013-08-17 18:19:00,71.6,36.8,29.90,WNW,286,3.0,5.0,28,0.00,,---,0.00,VWS V14.01,2013-08-18 00:19:00,
2013-08-17 18:24:00,71.5,37.6,29.91,WNW,286,5.0,5.0,29,0.00,,---,0.00,VWS V14.01,2013-08-18 00:24:00,
2013-08-17 18:29:00,71.0,38.9,29.91,WNW,292,9.0,9.0,31,0.00,,---,0.00,VWS V14.01,2013-08-18 00:29:00,
2013-08-17 18:34:00,70.2,38.2,29.91,NW,313,11.0,12.0,31,0.00,,---,0.00,VWS V14.01,2013-08-18 00:34:00,
2013-08-17 18:39:00,69.6,38.5,29.91,WNW,299,9.0,10.0,32,0.00,,---,0.00,VWS V14.01,2013-08-18 00:39:00,
2013-08-17 18:44:00,69.2,38.9,29.91,NW,311,7.0,7.0,33,0.00,,---,0.00,VWS V14.01,2013-08-18 00:44:00,
2013-08-17 18:49:00,68.8,38.5,29.91,WNW,300,7.0,8.0,33,0.00,,---,0.00,VWS V14.01,2013-08-18 00:49:00,
2013-08-17 18:54:00,68.8,39.3,29.92,WNW,299,4.0,4.0,34,0.00,,---,0.00,VWS V14.01,2013-08-18 00:54:00,
2013-08-17 18:59:00,68.7,40.7,29.92,WNW,300,4.0,7.0,36,0.00,,---,0.00,VWS V14.01,2013-08-18 00:59:00,
2013-08-17 19:04:00,68.9,39.4,29.92,WNW,300,1.0,4.0,34,0.00,,---,0.00,VWS V14.01,2013-08-18 01:04:00,
2013-08-17 19:09:00,68.9,41.6,29.92,WNW,300,3.0,4.0,37,0.00,,---,0.00,VWS V14.01,2013-08-18 01:09:00,
2013-08-17 19:14:00,68.4,42.5,29.92,WNW,300,4.0,5.0,39,0.00,,---,0.00,VWS V14.01,2013-08-18 01:14:00,
2013-08-17 19:19:00,67.1,43.3,29.92,WNW,300,4.0,4.0,42,0.00,,---,0.00,VWS V14.01,2013-08-18 01:19:00,
2013-08-17 19:24:00,65.8,42.7,29.92,WNW,300,5.0,5.0,43,0.00,,---,0.00,VWS V14.01,2013-08-18 01:24:00,
2013-08-17 19:29:00,64.8,43.0,29.92,WNW,300,2.0,2.0,45,0.00,,---,0.00,VWS V14.01,2013-08-18 01:29:00,
2013-08-17 19:34:00,64.0,41.7,29.92,WNW,300,0.0,1.0,44,0.00,,---,0.00,VWS V14.01,2013-08-18 01:34:00,
2013-08-17 19:39:00,63.5,38.8,29.92,WNW,300,0.0,1.0,40,0.00,,---,0.00,VWS V14.01,2013-08-18 01:39:00,
2013-08-17 19:44:00,63.1,42.0,29.92,WNW,300,6.0,6.0,46,0.00,,---,0.00,VWS V14.01,2013-08-18 01:44:00,
2013-08-17 19:50:00,62.0,41.6,29.92,WNW,301,5.0,7.0,47,0.00,,---,0.00,VWS V14.01,2013-08-18 01:50:00,
2013-08-17 19:55:00,61.2,41.9,29.92,WNW,302,6.0,8.0,49,0.00,,---,0.00,VWS V14.01,2013-08-18 01:55:00,
2013-08-17 20:00:00,61.0,42.8,29.93,WNW,302,7.0,7.0,51,0.00,,---,0.00,VWS V14.01,2013-08-18 02:00:00,
2013-08-17 20:05:00,60.2,41.5,29.93,WNW,302,6.0,7.0,50,0.00,,---,0.00,VWS V14.01,2013-08-18 02:05:00,
2013-08-17 20:10:00,59.6,41.0,29.93,WNW,302,6.0,7.0,50,0.00,,---,0.00,VWS V14.01,2013-08-18 02:10:00,
2013-08-17 20:15:00,58.9,41.8,29.93,WNW,303,8.0,8.0,53,0.00,,---,0.00,VWS V14.01,2013-08-18 02:15:00,
2013-08-17 20:20:00,58.0,41.9,29.93,NW,304,6.0,7.0,55,0.00,,---,0.00,VWS V14.01,2013-08-18 02:20:00,
2013-08-17 20:25:00,57.0,41.9,29.93,NW,304,8.0,8.0,57,0.00,,---,0.00,VWS V14.01,2013-08-18 02:25:00,
2013-08-17 20:30:00,56.5,41.0,29.93,NW,304,6.0,7.0,56,0.00,,---,0.00,VWS V14.01,2013-08-18 02:30:00,
2013-08-17 20:35:00,56.3,41.7,29.93,NW,304,8.0,8.0,58,0.00,,---,0.00,VWS V14.01,2013-08-18 02:35:00,
2013-08-17 20:40:00,56.2,41.6,29.93,NW,306,9.0,9.0,58,0.00,,---,0.00,VWS V14.01,2013-08-18 02:40:00,
2013-08-17 20:45:00,56.4,40.9,29.94,NW,312,8.0,10.0,56,0.00,,---,0.00,VWS V14.01,2013-08-18 02:45:00,
2013-08-17 20:50:00,57.3,41.8,29.94,NW,319,10.0,10.0,56,0.00,,---,0.00,VWS V14.01,2013-08-18 02:50:00,
2013-08-17 20:55:00,57.1,41.6,29.94,NW,323,7.0,9.0,56,0.00,,---,0.00,VWS V14.01,2013-08-18 02:55:00,
2013-08-17 21:00:00,56.5,41.0,29.94,NW,325,8.0,9.0,56,0.00,,---,0.00,VWS V14.01,2013-08-18 03:00:00,
2013-08-17 21:05:00,56.4,40.9,29.94,NW,325,7.0,7.0,56,0.00,,---,0.00,VWS V14.01,2013-08-18 03:05:00,
2013-08-17 21:10:00,55.9,40.9,29.94,NW,326,10.0,10.0,57,0.00,,---,0.00,VWS V14.01,2013-08-18 03:10:00,
2013-08-17 21:15:00,55.7,41.2,29.94,NNW,329,10.0,11.0,58,0.00,,---,0.00,VWS V14.01,2013-08-18 03:15:00,
2013-08-17 21:20:00,55.7,41.2,29.94,NNW,329,9.0,9.0,58,0.00,,---,0.00,VWS V14.01,2013-08-18 03:20:00,
2013-08-17 21:25:00,55.7,40.7,29.95,NNW,329,8.0,8.0,57,0.00,,---,0.00,VWS V14.01,2013-08-18 03:25:00,
2013-08-17 21:30:00,56.0,40.1,29.95,NNW,329,0.0,1.0,55,0.00,,---,0.00,VWS V14.01,2013-08-18 03:30:00,
2013-08-17 21:35:00,56.4,40.0,29.95,NNW,329,0.0,2.0,54,0.00,,---,0.00,VWS V14.01,2013-08-18 03:35:00,
2013-08-17 21:40:00,56.9,40.0,29.96,NNW,329,2.0,2.0,53,0.00,,---,0.00,VWS V14.01,2013-08-18 03:40:00,
2013-08-17 21:45:00,57.5,40.0,29.96,NNW,329,2.0,3.0,52,0.00,,---,0.00,VWS V14.01,2013-08-18 03:45:00,
2013-08-17 21:50:00,58.0,40.0,29.96,NNW,329,6.0,6.0,51,0.00,,---,0.00,VWS V14.01,2013-08-18 03:50:00,
2013-08-17 21:55:00,57.7,40.2,29.95,NNW,329,8.0,8.0,52,0.00,,---,0.00,VWS V14.01,2013-08-18 03:55:00,
2013-08-17 22:00:00,56.9,40.9,29.96,NNW,329,5.0,6.0,55,0.00,,---,0.00,VWS V14.01,2013-08-18 04:00:00,
2013-08-17 22:01:00,56.8,40.8,29.95,NNW,329,4.0,6.0,55,0.00,,---,0.00,VWS V14.01,2013-08-18 04:01:00,
2013-08-17 22:06:00,56.2,39.8,29.96,NNW,329,2.0,2.0,54,0.00,,---,0.00,VWS V14.01,2013-08-18 04:06:00,
2013-08-17 22:11:00,56.2,39.8,29.96,NNW,329,3.0,4.0,54,0.00,,---,0.00,VWS V14.01,2013-08-18 04:11:00,
2013-08-17 22:16:00,56.0,40.1,29.96,NNW,329,8.0,8.0,55,0.00,,---,0.00,VWS V14.01,2013-08-18 04:16:00,
2013-08-17 22:21:00,55.3,39.9,29.96,NNW,329,7.0,8.0,56,0.00,,---,0.00,VWS V14.01,2013-08-18 04:21:00,
2013-08-17 22:26:00,54.6,40.1,29.95,NNW,329,9.0,9.0,58,0.00,,---,0.00,VWS V14.01,2013-08-18 04:26:00,
2013-08-17 22:31:00,54.3,39.8,29.95,NNW,330,7.0,9.0,58,0.00,,---,0.00,VWS V14.01,2013-08-18 04:31:00,
2013-08-17 22:36:00,54.0,40.0,29.95,NNW,330,9.0,11.0,59,0.00,,---,0.00,VWS V14.01,2013-08-18 04:36:00,
2013-08-17 22:41:00,53.7,40.2,29.95,NNW,330,10.0,10.0,60,0.00,,---,0.00,VWS V14.01,2013-08-18 04:41:00,
2013-08-17 22:46:00,53.3,39.8,29.95,NNW,331,9.0,9.0,60,0.00,,---,0.00,VWS V14.01,2013-08-18 04:46:00,
2013-08-17 22:51:00,53.2,39.7,29.95,NNW,331,7.0,7.0,60,0.00,,---,0.00,VWS V14.01,2013-08-18 04:51:00,
2013-08-17 22:57:00,53.1,39.6,29.96,NNW,330,7.0,8.0,60,0.00,,---,0.00,VWS V14.01,2013-08-18 04:57:00,
2013-08-17 23:02:00,52.7,40.1,29.96,NNW,330,6.0,6.0,62,0.00,,---,0.00,VWS V14.01,2013-08-18 05:02:00,
2013-08-17 23:07:00,52.3,39.7,29.96,NNW,330,6.0,6.0,62,0.00,,---,0.00,VWS V14.01,2013-08-18 05:07:00,
2013-08-17 23:12:00,52.2,39.6,29.96,NNW,329,4.0,6.0,62,0.00,,---,0.00,VWS V14.01,2013-08-18 05:12:00,
2013-08-17 23:17:00,52.3,39.7,29.96,NNW,329,0.0,0.0,62,0.00,,---,0.00,VWS V14.01,2013-08-18 05:17:00,
2013-08-17 23:22:00,52.3,39.7,29.96,NNW,329,0.0,0.0,62,0.00,,---,0.00,VWS V14.01,2013-08-18 05:22:00,
2013-08-17 23:27:00,52.0,40.2,29.97,NNW,329,5.0,5.0,64,0.00,,---,0.00,VWS V14.01,2013-08-18 05:27:00,
2013-08-17 23:32:00,51.6,39.8,29.97,NNW,329,5.0,5.0,64,0.00,,---,0.00,VWS V14.01,2013-08-18 05:32:00,
2013-08-17 23:37:00,51.5,40.5,29.97,NNW,329,7.0,9.0,66,0.00,,---,0.00,VWS V14.01,2013-08-18 05:37:00,
2013-08-17 23:42:00,51.7,39.9,29.97,NNW,329,5.0,6.0,64,0.00,,---,0.00,VWS V14.01,2013-08-18 05:42:00,
2013-08-17 23:47:00,51.9,40.5,29.97,NNW,329,3.0,4.0,65,0.00,,---,0.00,VWS V14.01,2013-08-18 05:47:00,
2013-08-17 23:52:00,51.7,40.7,29.97,NNW,329,0.0,0.0,66,0.00,,---,0.00,VWS V14.01,2013-08-18 05:52:00,
2013-08-17 23:57:00,51.3,40.3,29.97,NNW,329,0.0,0.0,66,0.00,,---,0.00,VWS V14.01,2013-08-18 05:57:00,